createdAt,value
2018-12-12T00:00:38.750Z,98754.62
2018-12-12T00:04:44.805Z,98758.08
2018-12-12T00:08:48.911Z,98749.98
2018-12-12T00:12:53.025Z,98749.45
2018-12-12T00:16:57.117Z,98744.22
2018-12-12T00:21:01.291Z,98737.72
2018-12-12T00:25:06.842Z,98742.78
2018-12-12T00:29:10.974Z,98731.00
2018-12-12T00:33:15.085Z,98731.88
2018-12-12T00:37:19.215Z,98739.88
2018-12-12T00:41:23.641Z,98731.38
2018-12-12T00:45:27.881Z,98732.27
2018-12-12T00:49:31.968Z,98733.86
2018-12-12T00:53:36.106Z,98728.48
2018-12-12T00:57:40.471Z,98722.44
2018-12-12T01:01:44.601Z,98723.02
2018-12-12T01:05:48.682Z,98736.17
2018-12-12T01:09:52.761Z,98732.34
2018-12-12T01:13:56.848Z,98736.31
2018-12-12T01:18:00.902Z,98740.91
2018-12-12T01:22:05.055Z,98740.94
2018-12-12T01:26:09.124Z,98745.45
2018-12-12T01:30:13.220Z,98743.33
2018-12-12T01:34:17.330Z,98747.77
2018-12-12T01:38:21.454Z,98746.30
2018-12-12T01:42:25.568Z,98741.56
2018-12-12T01:46:29.653Z,98736.00
2018-12-12T01:50:33.724Z,98724.58
2018-12-12T01:54:37.781Z,98723.55
2018-12-12T01:58:41.914Z,98726.66
2018-12-12T02:02:45.989Z,98730.34
2018-12-12T02:06:50.105Z,98730.97
2018-12-12T02:10:54.540Z,98730.81
2018-12-12T02:14:58.625Z,98721.13
2018-12-12T02:19:02.784Z,98721.25
2018-12-12T02:23:06.869Z,98714.28
2018-12-12T02:27:10.955Z,98720.55
2018-12-12T02:31:15.009Z,98727.37
2018-12-12T02:35:19.127Z,98734.72
2018-12-12T02:39:23.296Z,98740.65
2018-12-12T02:43:27.381Z,98742.73
2018-12-12T02:47:32.671Z,98745.67
2018-12-12T02:51:36.730Z,98738.97
2018-12-12T02:55:40.807Z,98739.47
2018-12-12T02:59:44.881Z,98734.36
2018-12-12T03:03:49.054Z,98742.16
2018-12-12T03:07:53.273Z,98744.55
2018-12-12T03:11:57.384Z,98746.94
2018-12-12T03:16:01.524Z,98740.02
2018-12-12T03:20:06.690Z,98739.86
2018-12-12T03:24:10.796Z,98738.80
2018-12-12T03:28:15.016Z,98742.16
2018-12-12T03:32:19.133Z,98734.63
2018-12-12T03:36:23.344Z,98739.28
2018-12-12T03:40:27.869Z,98721.94
2018-12-12T03:44:31.941Z,98722.48
2018-12-12T03:48:36.022Z,98720.40
2018-12-12T03:52:40.163Z,98714.73
2018-12-12T03:56:44.231Z,98716.72
2018-12-12T04:00:48.414Z,98714.81
2018-12-12T04:04:52.494Z,98712.55
2018-12-12T04:08:56.639Z,98718.61
2018-12-12T04:13:00.780Z,98719.23
2018-12-12T04:17:04.865Z,98719.23
2018-12-12T04:21:08.925Z,98719.45
2018-12-12T04:25:13.476Z,98717.71
2018-12-12T04:29:17.572Z,98726.27
2018-12-12T04:33:21.643Z,98731.76
2018-12-12T04:37:25.718Z,98729.25
2018-12-12T04:41:29.860Z,98734.27
2018-12-12T04:45:34.002Z,98726.72
2018-12-12T04:49:38.155Z,98726.12
2018-12-12T04:53:42.228Z,98726.34
2018-12-12T04:57:46.333Z,98728.45
2018-12-12T05:01:50.758Z,98732.87
2018-12-12T05:05:54.904Z,98739.62
2018-12-12T05:09:59.000Z,98740.81
2018-12-12T05:14:03.079Z,98739.86
2018-12-12T05:18:07.130Z,98737.91
2018-12-12T05:22:11.210Z,98740.45
2018-12-12T05:26:15.283Z,98748.39
2018-12-12T05:30:19.489Z,98744.70
2018-12-12T05:34:23.547Z,98743.34
2018-12-12T05:38:27.629Z,98745.67
2018-12-12T05:42:32.828Z,98743.72
2018-12-12T05:46:41.740Z,98742.41
2018-12-12T05:50:43.069Z,98739.37
2018-12-12T05:54:47.125Z,98738.36
2018-12-12T05:58:51.232Z,98735.51
2018-12-12T06:02:55.349Z,98744.62
2018-12-12T06:06:59.477Z,98736.69
2018-12-12T06:11:03.615Z,98739.92
2018-12-12T06:15:08.312Z,98743.03
2018-12-12T06:19:12.428Z,98742.86
2018-12-12T06:23:16.582Z,98742.45
2018-12-12T06:27:21.735Z,98730.14
2018-12-12T06:31:25.789Z,98737.87
2018-12-12T06:35:29.875Z,98730.30
2018-12-12T06:39:34.004Z,98729.87
2018-12-12T06:43:38.074Z,98726.83
2018-12-12T06:47:42.152Z,98734.95
2018-12-12T06:51:46.226Z,98741.77
2018-12-12T06:55:50.313Z,98740.77
2018-12-12T06:59:54.386Z,98741.39
2018-12-12T07:03:58.466Z,98738.19
2018-12-12T07:08:02.570Z,98740.89
2018-12-12T07:12:06.661Z,98736.41
2018-12-12T07:16:10.737Z,98736.84
2018-12-12T07:20:14.913Z,98741.52
2018-12-12T07:24:18.986Z,98744.05
2018-12-12T07:28:23.128Z,98744.69
2018-12-12T07:32:27.274Z,98744.95
2018-12-12T07:36:31.346Z,98758.49
2018-12-12T07:40:35.454Z,98753.86
2018-12-12T07:44:41.496Z,98759.43
2018-12-12T07:48:48.482Z,98754.76
2018-12-12T07:52:58.145Z,98755.70
2018-12-12T07:57:02.234Z,98755.97
2018-12-12T08:01:06.398Z,98757.39
2018-12-12T08:05:10.613Z,98754.70
2018-12-12T08:09:14.729Z,98752.97
2018-12-12T08:13:18.828Z,98758.13
2018-12-12T08:17:22.971Z,98754.64
2018-12-12T08:21:27.098Z,98756.13
2018-12-12T08:25:31.473Z,98752.34
2018-12-12T08:29:35.548Z,98755.64
2018-12-12T08:33:39.623Z,98755.47
2018-12-12T08:37:43.699Z,98760.16
2018-12-12T08:41:47.773Z,98760.34
2018-12-12T08:45:51.918Z,98764.03
2018-12-12T08:49:55.990Z,98761.91
2018-12-12T08:54:00.078Z,98767.69
2018-12-12T08:58:04.297Z,98768.63
2018-12-12T09:02:08.460Z,98766.41
2018-12-12T09:06:12.620Z,98766.59
2018-12-12T09:10:16.773Z,98767.84
2018-12-12T09:14:22.838Z,98774.46
2018-12-12T09:18:28.318Z,98778.80
2018-12-12T09:22:32.688Z,98778.03
2018-12-12T09:26:36.834Z,98779.78
2018-12-12T09:30:40.971Z,98777.10
2018-12-12T09:34:47.016Z,98778.09
2018-12-12T09:38:51.160Z,98774.58
2018-12-12T09:42:55.247Z,98776.89
2018-12-12T09:46:59.390Z,98775.35
2018-12-12T09:51:07.264Z,98770.31
2018-12-12T09:55:11.629Z,98774.77
2018-12-12T09:59:15.705Z,98769.36
2018-12-12T10:03:19.794Z,98765.30
2018-12-12T10:07:23.869Z,98771.48
2018-12-12T10:11:27.939Z,98765.69
2018-12-12T10:15:32.569Z,98764.73
2018-12-12T10:19:36.682Z,98766.27
2018-12-12T10:23:40.765Z,98761.63
2018-12-12T10:27:44.832Z,98752.55
2018-12-12T10:31:48.954Z,98757.95
2018-12-12T10:35:53.019Z,98749.25
2018-12-12T10:39:57.190Z,98751.76
2018-12-12T10:44:01.318Z,98744.80
2018-12-12T10:48:05.435Z,98745.56
2018-12-12T10:52:09.595Z,98746.74
2018-12-12T10:56:13.686Z,98745.56
2018-12-12T11:00:18.846Z,98738.03
2018-12-12T11:04:22.957Z,98736.48
2018-12-12T11:08:27.064Z,98743.05
2018-12-12T11:12:31.121Z,98735.34
2018-12-12T11:16:35.216Z,98732.05
2018-12-12T11:20:39.316Z,98729.14
2018-12-12T11:24:43.377Z,98725.23
2018-12-12T11:28:47.489Z,98717.29
2018-12-12T11:32:51.612Z,98713.56
2018-12-12T11:36:55.737Z,98707.24
2018-12-12T11:40:59.961Z,98694.20
2018-12-12T11:45:04.795Z,98696.09
2018-12-12T11:49:08.914Z,98688.67
2018-12-12T11:53:13.041Z,98688.83
2018-12-12T11:57:17.492Z,98681.52
2018-12-12T12:01:21.572Z,98677.09
2018-12-12T12:05:25.709Z,98675.13
2018-12-12T12:09:29.850Z,98671.66
2018-12-12T12:13:33.921Z,98671.08
2018-12-12T12:17:38.009Z,98660.45
2018-12-12T12:21:42.104Z,98664.11
2018-12-12T12:25:46.186Z,98662.39
2018-12-12T12:29:50.265Z,98658.52
2018-12-12T12:33:54.508Z,98664.75
2018-12-12T12:37:58.594Z,98661.41
2018-12-12T12:42:02.665Z,98658.28
2018-12-12T12:46:06.828Z,98654.61
2018-12-12T12:50:10.926Z,98648.60
2018-12-12T12:54:14.990Z,98649.95
2018-12-12T12:58:19.060Z,98646.92
2018-12-12T13:02:23.170Z,98641.33
2018-12-12T13:06:27.245Z,98640.35
2018-12-12T13:10:31.750Z,98639.16
2018-12-12T13:14:35.798Z,98634.76
2018-12-12T13:18:39.885Z,98631.66
2018-12-12T13:22:43.957Z,98631.09
2018-12-12T13:26:53.400Z,98628.36
2018-12-12T13:30:54.133Z,98625.06
2018-12-12T13:34:58.470Z,98627.53
2018-12-12T13:43:19.647Z,98612.23
2018-12-12T13:47:23.741Z,98609.35
2018-12-12T13:51:28.189Z,98608.61
2018-12-12T13:55:32.297Z,98610.56
2018-12-12T13:59:36.402Z,98604.57
2018-12-12T14:03:40.482Z,98606.89
2018-12-12T14:07:44.559Z,98603.63
2018-12-12T14:11:48.706Z,98599.52
2018-12-12T14:15:52.793Z,98595.42
2018-12-12T14:19:56.913Z,98599.30
2018-12-12T14:24:00.999Z,98598.67
2018-12-12T14:28:05.133Z,98596.92
2018-12-12T14:32:09.290Z,98596.38
2018-12-12T14:36:13.413Z,98594.23
2018-12-12T14:40:17.505Z,98588.98
2018-12-12T14:44:21.580Z,98593.60
2018-12-12T14:48:30.295Z,98592.66
2018-12-12T14:52:31.843Z,98596.11
2018-12-12T14:56:35.997Z,98582.52
2018-12-12T15:00:40.189Z,98590.87
2018-12-12T15:04:44.254Z,98582.52
2018-12-12T15:08:48.349Z,98587.53
2018-12-12T15:12:52.524Z,98574.00
2018-12-12T15:16:57.697Z,98582.29
2018-12-12T15:21:01.790Z,98580.37
2018-12-12T15:25:06.646Z,98578.27
2018-12-12T15:29:10.733Z,98578.09
2018-12-12T15:33:14.898Z,98577.31
2018-12-12T15:37:18.984Z,98579.45
2018-12-12T15:41:23.062Z,98586.97
2018-12-12T15:45:27.238Z,98586.42
2018-12-12T15:49:31.327Z,98586.22
2018-12-12T15:53:35.466Z,98580.57
2018-12-12T15:57:39.602Z,98582.73
2018-12-12T16:01:43.762Z,98578.30
2018-12-12T16:05:48.426Z,98578.09
2018-12-12T16:09:52.502Z,98578.67
2018-12-12T16:13:56.589Z,98577.86
2018-12-12T16:18:00.709Z,98581.14
2018-12-12T16:22:04.788Z,98582.92
2018-12-12T16:26:08.871Z,98585.84
2018-12-12T16:30:12.957Z,98576.41
2018-12-12T16:34:17.029Z,98583.00
2018-12-12T16:38:21.142Z,98574.58
2018-12-12T16:42:26.081Z,98582.30
2018-12-12T16:46:32.156Z,98574.17
2018-12-12T16:50:36.253Z,98578.39
2018-12-12T16:54:40.625Z,98565.20
2018-12-12T16:58:44.759Z,98570.23
2018-12-12T17:02:48.860Z,98569.27
2018-12-12T17:06:52.929Z,98569.27
2018-12-12T17:10:57.057Z,98564.08
2018-12-12T17:15:02.144Z,98563.48
2018-12-12T17:19:06.228Z,98559.45
2018-12-12T17:23:10.332Z,98561.02
2018-12-12T17:40:50.278Z,98551.36
2018-12-12T17:49:09.002Z,98553.27
2018-12-12T17:53:47.655Z,98553.28
2018-12-12T18:02:48.806Z,98550.54
2018-12-12T18:11:49.889Z,98544.72
2018-12-12T18:20:47.175Z,98545.52
2018-12-12T18:42:48.322Z,98544.81
2018-12-12T18:51:47.617Z,98538.66
2018-12-12T18:55:53.687Z,98545.08
2018-12-12T18:59:57.750Z,98541.05
2018-12-12T19:08:49.175Z,98535.81
2018-12-12T19:12:53.254Z,98536.02
2018-12-12T19:21:47.742Z,98544.84
2018-12-12T19:30:48.358Z,98534.73
2018-12-12T19:34:52.463Z,98532.19
2018-12-12T19:38:57.642Z,98525.79
2018-12-12T19:47:47.213Z,98530.83
2018-12-12T19:51:51.304Z,98521.15
2018-12-12T20:00:48.798Z,98520.73
2018-12-12T20:04:58.296Z,98518.81
2018-12-12T20:09:02.367Z,98518.65
2018-12-12T20:13:07.683Z,98518.88
2018-12-12T20:17:11.780Z,98513.46
2018-12-12T20:21:15.882Z,98511.01
2018-12-12T20:25:19.987Z,98504.69
2018-12-12T20:29:24.072Z,98506.42
2018-12-12T20:33:28.169Z,98500.81
2018-12-12T20:37:32.285Z,98494.65
2018-12-12T20:41:36.375Z,98495.00
2018-12-12T20:45:40.476Z,98487.85
2018-12-12T20:49:44.554Z,98489.58
2018-12-12T20:53:48.712Z,98494.98
2018-12-12T20:57:52.825Z,98490.34
2018-12-12T21:01:58.419Z,98493.44
2018-12-12T21:06:02.453Z,98486.55
2018-12-12T21:10:07.475Z,98485.17
2018-12-12T21:14:11.542Z,98483.01
2018-12-12T21:18:15.629Z,98471.76
2018-12-12T21:22:19.738Z,98470.00
2018-12-12T21:26:25.078Z,98466.55
2018-12-12T21:30:29.162Z,98470.53
2018-12-12T21:34:33.249Z,98467.42
2018-12-12T21:38:37.353Z,98464.31
2018-12-12T21:47:47.550Z,98460.27
2018-12-12T22:00:50.202Z,98454.05
2018-12-12T22:09:14.427Z,98442.89
2018-12-12T22:22:03.522Z,98435.47
2018-12-12T22:30:49.302Z,98438.21
2018-12-12T22:39:47.939Z,98435.90
2018-12-12T22:48:47.600Z,98442.86
2018-12-12T22:52:51.675Z,98435.55
2018-12-12T23:19:47.410Z,98435.52
2018-12-12T23:28:46.836Z,98422.41
2018-12-12T23:32:50.893Z,98420.92
2018-12-12T23:36:54.997Z,98422.30
2018-12-12T23:40:59.090Z,98414.77
2018-12-12T23:45:03.200Z,98410.14
2018-12-12T23:49:08.248Z,98418.64
2018-12-12T23:53:12.317Z,98405.68
2018-12-12T23:57:16.399Z,98400.44
